sensor_id;sensor_type;location;lat;lon;timestamp;P1;durP1;ratioP1;P2;durP2;ratioP2
19675;SDS011;39539;52.202;9.876;2023-02-01T00:00:08;17.85;;;3.80;;
19675;SDS011;39539;52.202;9.876;2023-02-01T00:02:34;12.35;;;3.17;;
19675;SDS011;39539;52.202;9.876;2023-02-01T00:05:07;11.38;;;3.88;;
19675;SDS011;39539;52.202;9.876;2023-02-01T00:07:33;10.93;;;3.67;;
19675;SDS011;39539;52.202;9.876;2023-02-01T00:09:59;13.80;;;4.45;;
19675;SDS011;39539;52.202;9.876;2023-02-01T00:12:24;9.02;;;3.38;;
19675;SDS011;39539;52.202;9.876;2023-02-01T00:14:50;11.05;;;4.05;;
19675;SDS011;39539;52.202;9.876;2023-02-01T00:17:16;12.70;;;4.05;;
19675;SDS011;39539;52.202;9.876;2023-02-01T00:19:42;12.85;;;3.50;;
19675;SDS011;39539;52.202;9.876;2023-02-01T00:22:07;11.30;;;3.95;;
19675;SDS011;39539;52.202;9.876;2023-02-01T00:24:32;14.73;;;3.67;;
19675;SDS011;39539;52.202;9.876;2023-02-01T00:26:58;10.68;;;3.60;;
19675;SDS011;39539;52.202;9.876;2023-02-01T00:29:23;12.85;;;3.75;;
19675;SDS011;39539;52.202;9.876;2023-02-01T00:31:49;15.05;;;3.90;;
19675;SDS011;39539;52.202;9.876;2023-02-01T00:34:16;9.70;;;4.07;;
19675;SDS011;39539;52.202;9.876;2023-02-01T00:36:42;13.52;;;3.78;;
19675;SDS011;39539;52.202;9.876;2023-02-01T00:39:08;13.38;;;3.58;;
19675;SDS011;39539;52.202;9.876;2023-02-01T00:41:34;12.63;;;3.67;;
19675;SDS011;39539;52.202;9.876;2023-02-01T00:43:59;13.90;;;3.58;;
19675;SDS011;39539;52.202;9.876;2023-02-01T00:46:25;13.13;;;4.05;;
19675;SDS011;39539;52.202;9.876;2023-02-01T00:48:50;13.48;;;3.85;;
19675;SDS011;39539;52.202;9.876;2023-02-01T00:51:17;15.85;;;3.78;;
19675;SDS011;39539;52.202;9.876;2023-02-01T00:53:45;17.15;;;4.05;;
19675;SDS011;39539;52.202;9.876;2023-02-01T00:56:11;9.52;;;3.70;;
19675;SDS011;39539;52.202;9.876;2023-02-01T00:58:37;14.40;;;4.32;;
19675;SDS011;39539;52.202;9.876;2023-02-01T01:03:40;9.95;;;3.83;;
19675;SDS011;39539;52.202;9.876;2023-02-01T01:06:12;16.85;;;3.85;;
19675;SDS011;39539;52.202;9.876;2023-02-01T01:08:39;9.40;;;3.55;;
19675;SDS011;39539;52.202;9.876;2023-02-01T01:11:06;15.07;;;4.03;;
19675;SDS011;39539;52.202;9.876;2023-02-01T01:13:51;12.00;;;4.22;;
19675;SDS011;39539;52.202;9.876;2023-02-01T01:16:18;10.32;;;3.45;;
19675;SDS011;39539;52.202;9.876;2023-02-01T01:18:45;13.43;;;4.00;;
19675;SDS011;39539;52.202;9.876;2023-02-01T01:21:12;21.48;;;4.63;;
19675;SDS011;39539;52.202;9.876;2023-02-01T01:23:40;18.15;;;4.10;;
19675;SDS011;39539;52.202;9.876;2023-02-01T01:26:06;13.45;;;3.63;;
19675;SDS011;39539;52.202;9.876;2023-02-01T01:28:32;12.52;;;3.55;;
19675;SDS011;39539;52.202;9.876;2023-02-01T01:30:58;12.45;;;3.88;;
19675;SDS011;39539;52.202;9.876;2023-02-01T01:33:25;12.57;;;3.80;;
19675;SDS011;39539;52.202;9.876;2023-02-01T01:35:50;20.45;;;4.07;;
19675;SDS011;39539;52.202;9.876;2023-02-01T01:38:17;10.65;;;3.33;;
19675;SDS011;39539;52.202;9.876;2023-02-01T01:40:46;14.10;;;4.57;;
19675;SDS011;39539;52.202;9.876;2023-02-01T01:43:15;17.67;;;4.70;;
19675;SDS011;39539;52.202;9.876;2023-02-01T01:45:48;11.52;;;3.85;;
19675;SDS011;39539;52.202;9.876;2023-02-01T01:48:28;16.17;;;4.32;;
19675;SDS011;39539;52.202;9.876;2023-02-01T01:51:05;16.27;;;4.20;;
19675;SDS011;39539;52.202;9.876;2023-02-01T01:53:35;16.05;;;4.03;;
19675;SDS011;39539;52.202;9.876;2023-02-01T01:56:08;13.05;;;4.00;;
19675;SDS011;39539;52.202;9.876;2023-02-01T01:58:34;11.52;;;3.67;;
19675;SDS011;39539;52.202;9.876;2023-02-01T02:00:59;12.55;;;4.05;;
19675;SDS011;39539;52.202;9.876;2023-02-01T02:03:27;13.18;;;3.75;;
19675;SDS011;39539;52.202;9.876;2023-02-01T02:06:00;17.40;;;3.75;;
19675;SDS011;39539;52.202;9.876;2023-02-01T02:08:30;14.32;;;4.30;;
19675;SDS011;39539;52.202;9.876;2023-02-01T02:10:55;11.20;;;3.88;;
19675;SDS011;39539;52.202;9.876;2023-02-01T02:13:24;16.48;;;3.90;;
19675;SDS011;39539;52.202;9.876;2023-02-01T02:16:06;10.35;;;3.83;;
19675;SDS011;39539;52.202;9.876;2023-02-01T02:27:22;14.70;;;3.95;;
19675;SDS011;39539;52.202;9.876;2023-02-01T02:39:02;14.68;;;4.07;;
19675;SDS011;39539;52.202;9.876;2023-02-01T02:47:33;11.60;;;4.25;;
19675;SDS011;39539;52.202;9.876;2023-02-01T02:53:15;14.23;;;4.60;;
19675;SDS011;39539;52.202;9.876;2023-02-01T02:56:03;15.68;;;4.65;;
19675;SDS011;39539;52.202;9.876;2023-02-01T02:58:49;10.10;;;3.97;;
19675;SDS011;39539;52.202;9.876;2023-02-01T03:01:35;13.95;;;4.60;;
19675;SDS011;39539;52.202;9.876;2023-02-01T03:04:26;17.48;;;4.53;;
19675;SDS011;39539;52.202;9.876;2023-02-01T03:06:53;17.73;;;4.68;;
19675;SDS011;39539;52.202;9.876;2023-02-01T03:09:24;16.23;;;4.20;;
19675;SDS011;39539;52.202;9.876;2023-02-01T03:12:00;14.30;;;4.55;;
19675;SDS011;39539;52.202;9.876;2023-02-01T03:14:49;9.15;;;4.40;;
19675;SDS011;39539;52.202;9.876;2023-02-01T03:17:22;12.23;;;4.22;;
19675;SDS011;39539;52.202;9.876;2023-02-01T03:19:55;10.40;;;4.25;;
19675;SDS011;39539;52.202;9.876;2023-02-01T03:22:27;10.63;;;4.32;;
19675;SDS011;39539;52.202;9.876;2023-02-01T03:24:59;15.40;;;4.57;;
19675;SDS011;39539;52.202;9.876;2023-02-01T03:27:51;13.65;;;4.32;;
19675;SDS011;39539;52.202;9.876;2023-02-01T03:30:21;10.55;;;4.43;;
19675;SDS011;39539;52.202;9.876;2023-02-01T03:32:51;11.07;;;4.15;;
19675;SDS011;39539;52.202;9.876;2023-02-01T03:41:33;14.98;;;4.95;;
19675;SDS011;39539;52.202;9.876;2023-02-01T03:46:54;10.60;;;4.47;;
19675;SDS011;39539;52.202;9.876;2023-02-01T03:49:33;17.45;;;4.97;;
19675;SDS011;39539;52.202;9.876;2023-02-01T03:52:01;10.60;;;4.50;;
19675;SDS011;39539;52.202;9.876;2023-02-01T03:54:28;13.43;;;4.78;;
19675;SDS011;39539;52.202;9.876;2023-02-01T03:56:55;17.02;;;5.00;;
19675;SDS011;39539;52.202;9.876;2023-02-01T03:59:24;13.75;;;4.93;;
19675;SDS011;39539;52.202;9.876;2023-02-01T04:01:50;13.80;;;5.00;;
19675;SDS011;39539;52.202;9.876;2023-02-01T04:04:15;10.90;;;5.13;;
19675;SDS011;39539;52.202;9.876;2023-02-01T04:06:46;16.75;;;5.65;;
19675;SDS011;39539;52.202;9.876;2023-02-01T04:09:12;10.18;;;5.03;;
19675;SDS011;39539;52.202;9.876;2023-02-01T04:11:39;15.48;;;5.32;;
19675;SDS011;39539;52.202;9.876;2023-02-01T04:14:05;15.45;;;5.93;;
19675;SDS011;39539;52.202;9.876;2023-02-01T04:16:31;17.50;;;6.68;;
19675;SDS011;39539;52.202;9.876;2023-02-01T04:18:57;12.35;;;5.65;;
19675;SDS011;39539;52.202;9.876;2023-02-01T04:21:23;18.80;;;5.90;;
19675;SDS011;39539;52.202;9.876;2023-02-01T04:23:53;13.27;;;5.70;;
19675;SDS011;39539;52.202;9.876;2023-02-01T04:26:19;13.15;;;5.72;;
19675;SDS011;39539;52.202;9.876;2023-02-01T04:28:45;12.80;;;5.50;;
19675;SDS011;39539;52.202;9.876;2023-02-01T04:31:15;16.75;;;6.80;;
19675;SDS011;39539;52.202;9.876;2023-02-01T04:33:40;11.25;;;5.75;;
19675;SDS011;39539;52.202;9.876;2023-02-01T04:36:07;13.50;;;5.22;;
19675;SDS011;39539;52.202;9.876;2023-02-01T04:38:36;14.13;;;5.47;;
19675;SDS011;39539;52.202;9.876;2023-02-01T04:41:01;12.10;;;5.18;;
19675;SDS011;39539;52.202;9.876;2023-02-01T04:43:26;13.98;;;5.15;;
19675;SDS011;39539;52.202;9.876;2023-02-01T04:45:52;16.40;;;5.55;;
19675;SDS011;39539;52.202;9.876;2023-02-01T04:48:19;12.02;;;5.43;;
19675;SDS011;39539;52.202;9.876;2023-02-01T04:50:45;11.63;;;5.03;;
19675;SDS011;39539;52.202;9.876;2023-02-01T04:53:13;12.75;;;5.38;;
19675;SDS011;39539;52.202;9.876;2023-02-01T04:55:41;16.02;;;4.93;;
19675;SDS011;39539;52.202;9.876;2023-02-01T04:58:09;13.02;;;4.97;;
19675;SDS011;39539;52.202;9.876;2023-02-01T05:00:35;12.23;;;5.20;;
19675;SDS011;39539;52.202;9.876;2023-02-01T05:03:01;15.35;;;5.35;;
19675;SDS011;39539;52.202;9.876;2023-02-01T05:05:27;15.07;;;6.80;;
19675;SDS011;39539;52.202;9.876;2023-02-01T05:07:52;12.82;;;5.00;;
19675;SDS011;39539;52.202;9.876;2023-02-01T05:10:18;13.68;;;5.70;;
19675;SDS011;39539;52.202;9.876;2023-02-01T05:12:44;17.42;;;5.05;;
19675;SDS011;39539;52.202;9.876;2023-02-01T05:15:28;12.35;;;5.15;;
19675;SDS011;39539;52.202;9.876;2023-02-01T05:17:54;16.83;;;5.50;;
19675;SDS011;39539;52.202;9.876;2023-02-01T05:20:21;15.02;;;5.10;;
19675;SDS011;39539;52.202;9.876;2023-02-01T05:22:47;11.25;;;5.30;;
19675;SDS011;39539;52.202;9.876;2023-02-01T05:25:12;10.63;;;5.35;;
19675;SDS011;39539;52.202;9.876;2023-02-01T05:27:37;14.85;;;5.20;;
19675;SDS011;39539;52.202;9.876;2023-02-01T05:30:04;17.55;;;5.25;;
19675;SDS011;39539;52.202;9.876;2023-02-01T05:32:30;14.05;;;5.57;;
19675;SDS011;39539;52.202;9.876;2023-02-01T05:34:55;13.02;;;5.07;;
19675;SDS011;39539;52.202;9.876;2023-02-01T05:37:21;14.60;;;5.38;;
19675;SDS011;39539;52.202;9.876;2023-02-01T05:39:47;14.68;;;5.88;;
19675;SDS011;39539;52.202;9.876;2023-02-01T05:42:14;13.82;;;4.47;;
19675;SDS011;39539;52.202;9.876;2023-02-01T05:44:40;13.38;;;5.40;;
19675;SDS011;39539;52.202;9.876;2023-02-01T05:47:06;11.85;;;4.65;;
19675;SDS011;39539;52.202;9.876;2023-02-01T05:49:31;9.90;;;5.00;;
19675;SDS011;39539;52.202;9.876;2023-02-01T05:51:57;11.15;;;4.93;;
19675;SDS011;39539;52.202;9.876;2023-02-01T05:54:22;13.45;;;4.65;;
19675;SDS011;39539;52.202;9.876;2023-02-01T05:56:48;11.30;;;4.63;;
19675;SDS011;39539;52.202;9.876;2023-02-01T05:59:14;8.60;;;4.07;;
19675;SDS011;39539;52.202;9.876;2023-02-01T06:01:39;13.02;;;4.53;;
19675;SDS011;39539;52.202;9.876;2023-02-01T06:04:04;8.30;;;4.28;;
19675;SDS011;39539;52.202;9.876;2023-02-01T06:06:30;8.77;;;4.38;;
19675;SDS011;39539;52.202;9.876;2023-02-01T06:08:56;9.90;;;4.22;;
19675;SDS011;39539;52.202;9.876;2023-02-01T06:11:23;11.20;;;4.70;;
19675;SDS011;39539;52.202;9.876;2023-02-01T06:13:49;15.40;;;4.35;;
19675;SDS011;39539;52.202;9.876;2023-02-01T06:16:14;9.02;;;4.35;;
19675;SDS011;39539;52.202;9.876;2023-02-01T06:18:40;7.63;;;3.78;;
19675;SDS011;39539;52.202;9.876;2023-02-01T06:21:06;11.45;;;3.95;;
19675;SDS011;39539;52.202;9.876;2023-02-01T06:23:32;12.82;;;4.53;;
19675;SDS011;39539;52.202;9.876;2023-02-01T06:25:58;8.32;;;3.75;;
19675;SDS011;39539;52.202;9.876;2023-02-01T06:28:29;10.07;;;3.90;;
19675;SDS011;39539;52.202;9.876;2023-02-01T06:30:56;11.75;;;3.88;;
19675;SDS011;39539;52.202;9.876;2023-02-01T06:33:23;8.15;;;3.60;;
19675;SDS011;39539;52.202;9.876;2023-02-01T06:36:07;11.63;;;4.03;;
19675;SDS011;39539;52.202;9.876;2023-02-01T06:38:34;7.30;;;3.05;;
19675;SDS011;39539;52.202;9.876;2023-02-01T06:41:00;7.93;;;3.40;;
19675;SDS011;39539;52.202;9.876;2023-02-01T06:43:26;9.30;;;3.95;;
19675;SDS011;39539;52.202;9.876;2023-02-01T06:45:52;6.93;;;3.33;;
19675;SDS011;39539;52.202;9.876;2023-02-01T06:48:18;6.57;;;3.50;;
19675;SDS011;39539;52.202;9.876;2023-02-01T06:50:45;10.77;;;3.70;;
19675;SDS011;39539;52.202;9.876;2023-02-01T06:53:10;6.97;;;3.40;;
19675;SDS011;39539;52.202;9.876;2023-02-01T06:55:36;8.18;;;3.88;;
19675;SDS011;39539;52.202;9.876;2023-02-01T06:58:04;6.30;;;3.30;;
19675;SDS011;39539;52.202;9.876;2023-02-01T07:00:31;7.57;;;3.80;;
19675;SDS011;39539;52.202;9.876;2023-02-01T07:02:57;9.05;;;3.97;;
19675;SDS011;39539;52.202;9.876;2023-02-01T07:05:24;11.27;;;4.38;;
19675;SDS011;39539;52.202;9.876;2023-02-01T07:07:49;8.50;;;3.70;;
19675;SDS011;39539;52.202;9.876;2023-02-01T07:10:20;6.53;;;3.90;;
19675;SDS011;39539;52.202;9.876;2023-02-01T07:12:45;7.28;;;3.67;;
19675;SDS011;39539;52.202;9.876;2023-02-01T07:15:11;9.45;;;4.10;;
19675;SDS011;39539;52.202;9.876;2023-02-01T07:17:37;9.85;;;4.25;;
19675;SDS011;39539;52.202;9.876;2023-02-01T07:20:03;9.32;;;4.40;;
19675;SDS011;39539;52.202;9.876;2023-02-01T07:22:32;7.85;;;4.50;;
19675;SDS011;39539;52.202;9.876;2023-02-01T07:24:58;12.60;;;4.25;;
19675;SDS011;39539;52.202;9.876;2023-02-01T07:27:29;9.55;;;3.95;;
19675;SDS011;39539;52.202;9.876;2023-02-01T07:29:57;12.63;;;4.22;;
19675;SDS011;39539;52.202;9.876;2023-02-01T07:35:26;10.63;;;4.22;;
19675;SDS011;39539;52.202;9.876;2023-02-01T07:38:05;7.57;;;3.90;;
19675;SDS011;39539;52.202;9.876;2023-02-01T07:40:33;7.60;;;3.85;;
19675;SDS011;39539;52.202;9.876;2023-02-01T07:43:00;10.05;;;3.67;;
19675;SDS011;39539;52.202;9.876;2023-02-01T07:45:25;12.15;;;4.63;;
19675;SDS011;39539;52.202;9.876;2023-02-01T07:47:52;9.90;;;4.47;;
19675;SDS011;39539;52.202;9.876;2023-02-01T07:50:24;11.95;;;3.72;;
19675;SDS011;39539;52.202;9.876;2023-02-01T07:52:49;8.38;;;3.63;;
19675;SDS011;39539;52.202;9.876;2023-02-01T07:55:16;13.13;;;3.35;;
19675;SDS011;39539;52.202;9.876;2023-02-01T07:57:50;9.13;;;3.80;;
19675;SDS011;39539;52.202;9.876;2023-02-01T08:00:16;7.97;;;3.20;;
19675;SDS011;39539;52.202;9.876;2023-02-01T08:03:00;9.48;;;3.92;;
19675;SDS011;39539;52.202;9.876;2023-02-01T08:05:26;10.50;;;3.88;;
19675;SDS011;39539;52.202;9.876;2023-02-01T08:07:52;11.73;;;4.00;;
19675;SDS011;39539;52.202;9.876;2023-02-01T08:10:18;8.60;;;4.32;;
19675;SDS011;39539;52.202;9.876;2023-02-01T08:12:44;12.38;;;4.32;;
19675;SDS011;39539;52.202;9.876;2023-02-01T08:15:14;11.85;;;4.30;;
19675;SDS011;39539;52.202;9.876;2023-02-01T08:17:45;8.73;;;3.78;;
19675;SDS011;39539;52.202;9.876;2023-02-01T08:20:12;11.85;;;3.95;;
19675;SDS011;39539;52.202;9.876;2023-02-01T08:22:38;8.25;;;3.78;;
19675;SDS011;39539;52.202;9.876;2023-02-01T08:25:04;10.32;;;4.25;;
19675;SDS011;39539;52.202;9.876;2023-02-01T08:27:32;11.50;;;4.35;;
19675;SDS011;39539;52.202;9.876;2023-02-01T08:29:58;10.27;;;3.90;;
19675;SDS011;39539;52.202;9.876;2023-02-01T08:32:24;9.05;;;3.53;;
19675;SDS011;39539;52.202;9.876;2023-02-01T08:34:50;10.93;;;3.78;;
19675;SDS011;39539;52.202;9.876;2023-02-01T08:37:15;10.27;;;3.60;;
19675;SDS011;39539;52.202;9.876;2023-02-01T08:39:40;11.05;;;3.90;;
19675;SDS011;39539;52.202;9.876;2023-02-01T08:42:08;11.27;;;4.22;;
19675;SDS011;39539;52.202;9.876;2023-02-01T08:44:52;9.95;;;3.85;;
19675;SDS011;39539;52.202;9.876;2023-02-01T08:47:17;9.00;;;4.30;;
19675;SDS011;39539;52.202;9.876;2023-02-01T08:49:46;10.88;;;4.20;;
19675;SDS011;39539;52.202;9.876;2023-02-01T08:52:11;7.93;;;3.55;;
19675;SDS011;39539;52.202;9.876;2023-02-01T08:54:37;10.55;;;4.03;;
19675;SDS011;39539;52.202;9.876;2023-02-01T08:57:02;9.32;;;3.70;;
19675;SDS011;39539;52.202;9.876;2023-02-01T08:59:29;10.43;;;3.78;;
19675;SDS011;39539;52.202;9.876;2023-02-01T09:01:54;8.85;;;3.50;;
19675;SDS011;39539;52.202;9.876;2023-02-01T09:04:29;12.35;;;3.70;;
19675;SDS011;39539;52.202;9.876;2023-02-01T09:06:55;12.32;;;3.50;;
19675;SDS011;39539;52.202;9.876;2023-02-01T09:09:24;12.73;;;3.47;;
19675;SDS011;39539;52.202;9.876;2023-02-01T09:11:52;11.98;;;3.60;;
19675;SDS011;39539;52.202;9.876;2023-02-01T09:14:17;11.95;;;3.67;;
19675;SDS011;39539;52.202;9.876;2023-02-01T09:16:43;7.80;;;3.17;;
19675;SDS011;39539;52.202;9.876;2023-02-01T09:19:09;8.70;;;3.55;;
19675;SDS011;39539;52.202;9.876;2023-02-01T09:21:34;8.50;;;3.05;;
19675;SDS011;39539;52.202;9.876;2023-02-01T09:24:00;7.55;;;3.45;;
19675;SDS011;39539;52.202;9.876;2023-02-01T09:26:25;8.93;;;3.17;;
19675;SDS011;39539;52.202;9.876;2023-02-01T09:28:51;8.45;;;3.58;;
19675;SDS011;39539;52.202;9.876;2023-02-01T09:31:17;10.27;;;3.63;;
19675;SDS011;39539;52.202;9.876;2023-02-01T09:33:43;9.37;;;3.37;;
19675;SDS011;39539;52.202;9.876;2023-02-01T09:36:08;6.82;;;3.08;;
19675;SDS011;39539;52.202;9.876;2023-02-01T09:38:34;9.25;;;3.75;;
19675;SDS011;39539;52.202;9.876;2023-02-01T09:41:00;9.75;;;3.40;;
19675;SDS011;39539;52.202;9.876;2023-02-01T09:46:27;6.15;;;3.50;;
19675;SDS011;39539;52.202;9.876;2023-02-01T09:48:56;7.97;;;3.47;;
19675;SDS011;39539;52.202;9.876;2023-02-01T09:51:25;9.15;;;3.65;;
19675;SDS011;39539;52.202;9.876;2023-02-01T09:54:00;7.75;;;3.40;;
19675;SDS011;39539;52.202;9.876;2023-02-01T09:56:33;11.23;;;3.47;;
19675;SDS011;39539;52.202;9.876;2023-02-01T09:59:19;10.05;;;3.53;;
19675;SDS011;39539;52.202;9.876;2023-02-01T10:01:55;8.98;;;3.47;;
19675;SDS011;39539;52.202;9.876;2023-02-01T10:04:20;8.98;;;3.47;;
19675;SDS011;39539;52.202;9.876;2023-02-01T10:09:28;10.35;;;3.80;;
19675;SDS011;39539;52.202;9.876;2023-02-01T10:21:04;9.32;;;3.35;;
19675;SDS011;39539;52.202;9.876;2023-02-01T10:27:47;7.70;;;3.50;;
19675;SDS011;39539;52.202;9.876;2023-02-01T10:29:47;8.13;;;3.10;;
19675;SDS011;39539;52.202;9.876;2023-02-01T10:32:54;9.85;;;3.60;;
19675;SDS011;39539;52.202;9.876;2023-02-01T10:35:17;7.00;;;3.30;;
19675;SDS011;39539;52.202;9.876;2023-02-01T10:37:49;9.02;;;3.65;;
19675;SDS011;39539;52.202;9.876;2023-02-01T10:40:22;7.50;;;3.38;;
19675;SDS011;39539;52.202;9.876;2023-02-01T10:42:50;8.50;;;3.47;;
19675;SDS011;39539;52.202;9.876;2023-02-01T10:45:20;8.38;;;3.72;;
19675;SDS011;39539;52.202;9.876;2023-02-01T10:47:52;9.02;;;3.75;;
19675;SDS011;39539;52.202;9.876;2023-02-01T10:53:13;10.82;;;3.33;;
19675;SDS011;39539;52.202;9.876;2023-02-01T10:55:50;9.40;;;3.40;;
19675;SDS011;39539;52.202;9.876;2023-02-01T10:58:30;9.50;;;3.17;;
19675;SDS011;39539;52.202;9.876;2023-02-01T11:01:03;8.88;;;3.20;;
19675;SDS011;39539;52.202;9.876;2023-02-01T11:03:51;6.95;;;3.00;;
19675;SDS011;39539;52.202;9.876;2023-02-01T11:06:28;10.38;;;3.50;;
19675;SDS011;39539;52.202;9.876;2023-02-01T11:12:07;9.85;;;3.28;;
19675;SDS011;39539;52.202;9.876;2023-02-01T11:14:48;8.10;;;2.45;;
19675;SDS011;39539;52.202;9.876;2023-02-01T11:17:18;10.15;;;3.78;;
19675;SDS011;39539;52.202;9.876;2023-02-01T11:19:57;9.02;;;2.88;;
19675;SDS011;39539;52.202;9.876;2023-02-01T11:22:25;8.13;;;3.17;;
19675;SDS011;39539;52.202;9.876;2023-02-01T11:24:54;7.70;;;3.03;;
19675;SDS011;39539;52.202;9.876;2023-02-01T11:27:21;8.35;;;3.08;;
19675;SDS011;39539;52.202;9.876;2023-02-01T11:30:00;8.27;;;3.60;;
19675;SDS011;39539;52.202;9.876;2023-02-01T11:32:32;8.65;;;3.33;;
19675;SDS011;39539;52.202;9.876;2023-02-01T11:35:06;7.47;;;3.20;;
19675;SDS011;39539;52.202;9.876;2023-02-01T11:37:38;9.25;;;3.63;;
19675;SDS011;39539;52.202;9.876;2023-02-01T11:42:52;9.75;;;3.25;;
19675;SDS011;39539;52.202;9.876;2023-02-01T11:45:29;8.57;;;3.20;;
19675;SDS011;39539;52.202;9.876;2023-02-01T11:47:57;10.65;;;3.30;;
19675;SDS011;39539;52.202;9.876;2023-02-01T12:06:53;7.68;;;3.33;;
19675;SDS011;39539;52.202;9.876;2023-02-01T12:15:18;11.48;;;3.47;;
19675;SDS011;39539;52.202;9.876;2023-02-01T12:32:49;8.65;;;3.40;;
19675;SDS011;39539;52.202;9.876;2023-02-01T12:44:19;7.85;;;3.38;;
19675;SDS011;39539;52.202;9.876;2023-02-01T12:52:16;9.50;;;3.92;;
19675;SDS011;39539;52.202;9.876;2023-02-01T12:55:01;7.47;;;3.53;;
19675;SDS011;39539;52.202;9.876;2023-02-01T12:57:43;7.65;;;2.97;;
19675;SDS011;39539;52.202;9.876;2023-02-01T13:12:13;9.85;;;3.90;;
19675;SDS011;39539;52.202;9.876;2023-02-01T13:14:53;12.85;;;3.63;;
19675;SDS011;39539;52.202;9.876;2023-02-01T13:17:25;9.88;;;4.00;;
19675;SDS011;39539;52.202;9.876;2023-02-01T13:22:33;3.85;;;2.70;;
19675;SDS011;39539;52.202;9.876;2023-02-01T13:25:21;6.18;;;3.42;;
19675;SDS011;39539;52.202;9.876;2023-02-01T13:27:58;5.15;;;2.60;;
19675;SDS011;39539;52.202;9.876;2023-02-01T13:30:48;5.70;;;2.75;;
19675;SDS011;39539;52.202;9.876;2023-02-01T13:45:29;3.90;;;2.72;;
19675;SDS011;39539;52.202;9.876;2023-02-01T13:47:58;5.70;;;3.10;;
19675;SDS011;39539;52.202;9.876;2023-02-01T13:50:37;4.43;;;3.03;;
19675;SDS011;39539;52.202;9.876;2023-02-01T13:56:13;6.20;;;2.90;;
19675;SDS011;39539;52.202;9.876;2023-02-01T13:58:43;2.95;;;1.38;;
19675;SDS011;39539;52.202;9.876;2023-02-01T14:04:04;1.40;;;0.40;;
19675;SDS011;39539;52.202;9.876;2023-02-01T14:06:50;1.05;;;0.57;;
19675;SDS011;39539;52.202;9.876;2023-02-01T14:09:40;0.68;;;0.50;;
19675;SDS011;39539;52.202;9.876;2023-02-01T14:15:22;1.45;;;0.50;;
19675;SDS011;39539;52.202;9.876;2023-02-01T14:17:51;1.42;;;0.40;;
19675;SDS011;39539;52.202;9.876;2023-02-01T14:23:12;0.90;;;0.40;;
19675;SDS011;39539;52.202;9.876;2023-02-01T14:25:58;2.00;;;0.35;;
19675;SDS011;39539;52.202;9.876;2023-02-01T14:28:29;0.30;;;0.30;;
19675;SDS011;39539;52.202;9.876;2023-02-01T14:30:56;0.47;;;0.40;;
19675;SDS011;39539;52.202;9.876;2023-02-01T14:33:24;0.30;;;0.30;;
19675;SDS011;39539;52.202;9.876;2023-02-01T14:36:11;1.63;;;0.30;;
19675;SDS011;39539;52.202;9.876;2023-02-01T14:38:39;0.35;;;0.35;;
19675;SDS011;39539;52.202;9.876;2023-02-01T14:41:34;0.45;;;0.40;;
19675;SDS011;39539;52.202;9.876;2023-02-01T14:49:33;0.43;;;0.40;;
19675;SDS011;39539;52.202;9.876;2023-02-01T14:52:02;3.08;;;0.68;;
19675;SDS011;39539;52.202;9.876;2023-02-01T14:54:34;0.68;;;0.50;;
19675;SDS011;39539;52.202;9.876;2023-02-01T14:57:02;2.22;;;0.70;;
19675;SDS011;39539;52.202;9.876;2023-02-01T14:59:30;2.70;;;0.80;;
19675;SDS011;39539;52.202;9.876;2023-02-01T15:02:00;2.15;;;0.68;;
19675;SDS011;39539;52.202;9.876;2023-02-01T15:04:26;4.75;;;0.93;;
19675;SDS011;39539;52.202;9.876;2023-02-01T15:06:53;2.53;;;0.90;;
19675;SDS011;39539;52.202;9.876;2023-02-01T15:09:38;1.30;;;0.50;;
19675;SDS011;39539;52.202;9.876;2023-02-01T15:12:16;2.13;;;0.80;;
19675;SDS011;39539;52.202;9.876;2023-02-01T15:15:19;1.50;;;0.65;;
19675;SDS011;39539;52.202;9.876;2023-02-01T15:17:48;1.50;;;0.80;;
19675;SDS011;39539;52.202;9.876;2023-02-01T15:20:23;1.45;;;0.70;;
19675;SDS011;39539;52.202;9.876;2023-02-01T15:23:00;3.03;;;0.70;;
19675;SDS011;39539;52.202;9.876;2023-02-01T15:25:27;0.65;;;0.47;;
19675;SDS011;39539;52.202;9.876;2023-02-01T15:28:01;0.57;;;0.50;;
19675;SDS011;39539;52.202;9.876;2023-02-01T15:30:28;2.42;;;0.98;;
19675;SDS011;39539;52.202;9.876;2023-02-01T15:35:39;2.22;;;1.17;;
19675;SDS011;39539;52.202;9.876;2023-02-01T15:41:01;2.17;;;0.90;;
19675;SDS011;39539;52.202;9.876;2023-02-01T15:43:33;3.00;;;1.30;;
19675;SDS011;39539;52.202;9.876;2023-02-01T15:46:03;1.65;;;1.10;;
19675;SDS011;39539;52.202;9.876;2023-02-01T15:48:47;3.00;;;1.23;;
19675;SDS011;39539;52.202;9.876;2023-02-01T15:51:17;3.10;;;1.17;;
19675;SDS011;39539;52.202;9.876;2023-02-01T15:53:50;4.07;;;1.40;;
19675;SDS011;39539;52.202;9.876;2023-02-01T15:59:18;2.00;;;1.30;;
19675;SDS011;39539;52.202;9.876;2023-02-01T16:01:46;5.10;;;1.50;;
19675;SDS011;39539;52.202;9.876;2023-02-01T16:04:27;3.83;;;1.33;;
19675;SDS011;39539;52.202;9.876;2023-02-01T16:07:04;3.70;;;1.52;;
19675;SDS011;39539;52.202;9.876;2023-02-01T16:09:54;2.20;;;1.48;;
19675;SDS011;39539;52.202;9.876;2023-02-01T16:12:33;4.05;;;1.75;;
19675;SDS011;39539;52.202;9.876;2023-02-01T16:15:02;2.95;;;1.30;;
19675;SDS011;39539;52.202;9.876;2023-02-01T16:17:28;3.35;;;1.45;;
19675;SDS011;39539;52.202;9.876;2023-02-01T16:19:54;3.65;;;1.70;;
19675;SDS011;39539;52.202;9.876;2023-02-01T16:22:20;4.05;;;1.55;;
19675;SDS011;39539;52.202;9.876;2023-02-01T16:24:49;3.38;;;1.50;;
19675;SDS011;39539;52.202;9.876;2023-02-01T16:27:15;4.40;;;1.92;;
19675;SDS011;39539;52.202;9.876;2023-02-01T16:29:47;4.75;;;1.63;;
19675;SDS011;39539;52.202;9.876;2023-02-01T16:32:20;3.13;;;1.60;;
19675;SDS011;39539;52.202;9.876;2023-02-01T16:34:49;4.95;;;1.70;;
19675;SDS011;39539;52.202;9.876;2023-02-01T16:37:27;3.22;;;1.60;;
19675;SDS011;39539;52.202;9.876;2023-02-01T16:40:02;4.38;;;1.65;;
19675;SDS011;39539;52.202;9.876;2023-02-01T16:42:28;5.32;;;1.85;;
19675;SDS011;39539;52.202;9.876;2023-02-01T16:45:08;8.18;;;2.08;;
19675;SDS011;39539;52.202;9.876;2023-02-01T16:47:47;4.47;;;1.88;;
19675;SDS011;39539;52.202;9.876;2023-02-01T16:50:20;5.93;;;1.85;;
19675;SDS011;39539;52.202;9.876;2023-02-01T16:52:48;5.45;;;1.70;;
19675;SDS011;39539;52.202;9.876;2023-02-01T16:55:15;7.80;;;1.80;;
19675;SDS011;39539;52.202;9.876;2023-02-01T16:57:42;8.02;;;2.10;;
19675;SDS011;39539;52.202;9.876;2023-02-01T17:00:08;5.07;;;1.90;;
19675;SDS011;39539;52.202;9.876;2023-02-01T17:02:35;7.43;;;2.05;;
19675;SDS011;39539;52.202;9.876;2023-02-01T17:05:01;9.23;;;2.45;;
19675;SDS011;39539;52.202;9.876;2023-02-01T17:07:32;6.45;;;1.90;;
19675;SDS011;39539;52.202;9.876;2023-02-01T17:09:57;7.63;;;2.50;;
19675;SDS011;39539;52.202;9.876;2023-02-01T17:12:28;5.80;;;2.38;;
19675;SDS011;39539;52.202;9.876;2023-02-01T17:14:57;5.50;;;1.98;;
19675;SDS011;39539;52.202;9.876;2023-02-01T17:17:23;6.03;;;1.50;;
19675;SDS011;39539;52.202;9.876;2023-02-01T17:19:52;7.82;;;2.47;;
19675;SDS011;39539;52.202;9.876;2023-02-01T17:22:21;8.45;;;1.95;;
19675;SDS011;39539;52.202;9.876;2023-02-01T17:24:47;8.27;;;2.20;;
19675;SDS011;39539;52.202;9.876;2023-02-01T17:27:16;6.93;;;2.33;;
19675;SDS011;39539;52.202;9.876;2023-02-01T17:29:42;9.73;;;2.35;;
19675;SDS011;39539;52.202;9.876;2023-02-01T17:32:17;8.55;;;3.67;;
19675;SDS011;39539;52.202;9.876;2023-02-01T17:34:45;6.43;;;3.45;;
19675;SDS011;39539;52.202;9.876;2023-02-01T17:37:15;7.40;;;2.33;;
19675;SDS011;39539;52.202;9.876;2023-02-01T17:39:47;6.82;;;2.35;;
19675;SDS011;39539;52.202;9.876;2023-02-01T17:42:23;7.13;;;2.97;;
19675;SDS011;39539;52.202;9.876;2023-02-01T17:44:50;8.48;;;2.70;;
19675;SDS011;39539;52.202;9.876;2023-02-01T17:47:19;7.40;;;2.63;;
19675;SDS011;39539;52.202;9.876;2023-02-01T17:49:45;8.85;;;2.53;;